createdAt,value
2023-03-04T00:00:54.057Z,6.33
2023-03-04T00:05:55.503Z,6.83
2023-03-04T00:10:57.057Z,6.40
2023-03-04T00:15:58.471Z,6.20
2023-03-04T00:20:59.911Z,6.23
2023-03-04T00:26:01.315Z,7.43
2023-03-04T00:31:02.717Z,6.10
2023-03-04T00:36:04.116Z,5.03
2023-03-04T00:41:05.509Z,5.47
2023-03-04T00:46:06.996Z,5.90
2023-03-04T00:51:08.508Z,6.27
2023-03-04T00:56:09.938Z,5.73
2023-03-04T01:01:11.419Z,6.00
2023-03-04T01:06:12.871Z,5.00
2023-03-04T01:11:14.276Z,6.30
2023-03-04T01:16:15.732Z,5.70
2023-03-04T01:21:17.220Z,5.70
2023-03-04T01:26:18.628Z,5.47
2023-03-04T01:31:20.027Z,5.67
2023-03-04T01:36:21.471Z,5.57
2023-03-04T01:41:22.893Z,4.73
2023-03-04T01:46:24.365Z,5.63
2023-03-04T01:51:25.808Z,4.80
2023-03-04T01:56:27.222Z,4.30
2023-03-04T02:01:28.649Z,4.20
2023-03-04T02:06:30.076Z,5.63
2023-03-04T02:11:31.485Z,4.80
2023-03-04T02:16:32.933Z,4.10
2023-03-04T02:21:34.354Z,4.60
2023-03-04T02:26:35.797Z,4.07
2023-03-04T02:31:37.242Z,4.20
2023-03-04T02:36:38.677Z,4.17
2023-03-04T02:41:40.367Z,4.50
2023-03-04T02:46:41.946Z,4.00
2023-03-04T02:51:43.471Z,4.27
2023-03-04T02:56:44.946Z,4.00
2023-03-04T03:01:46.404Z,4.07
2023-03-04T03:06:47.826Z,4.10
2023-03-04T03:11:49.253Z,3.83
2023-03-04T03:16:50.680Z,3.70
2023-03-04T03:21:52.114Z,3.93
2023-03-04T03:26:53.512Z,3.63
2023-03-04T03:31:55.002Z,3.80
2023-03-04T03:36:56.457Z,4.27
2023-03-04T03:41:57.869Z,3.83
2023-03-04T03:46:59.280Z,4.17
2023-03-04T03:52:00.677Z,4.00
2023-03-04T03:57:02.081Z,3.10
2023-03-04T04:02:03.578Z,3.40
2023-03-04T04:07:05.068Z,3.50
2023-03-04T04:12:06.466Z,3.50
2023-03-04T04:17:07.888Z,3.67
2023-03-04T04:22:09.304Z,3.60
2023-03-04T04:27:10.711Z,3.00
2023-03-04T04:32:12.195Z,3.97
2023-03-04T04:37:13.677Z,3.87
2023-03-04T04:42:15.110Z,3.23
2023-03-04T04:47:16.523Z,3.97
2023-03-04T04:52:17.937Z,3.30
2023-03-04T04:57:19.362Z,3.60
2023-03-04T05:02:20.785Z,3.10
2023-03-04T05:07:22.228Z,3.07
2023-03-04T05:12:23.721Z,2.87
2023-03-04T05:17:25.211Z,3.10
2023-03-04T05:22:26.632Z,3.13
2023-03-04T05:27:28.028Z,3.00
2023-03-04T05:32:29.468Z,2.40
2023-03-04T05:37:30.961Z,3.23
2023-03-04T05:42:32.375Z,3.70
2023-03-04T05:47:33.779Z,2.53
2023-03-04T05:52:35.201Z,2.43
2023-03-04T05:57:36.638Z,2.60
2023-03-04T06:02:38.098Z,2.70
2023-03-04T06:07:39.555Z,2.73
2023-03-04T06:12:40.967Z,2.50
2023-03-04T06:17:42.469Z,3.00
2023-03-04T06:22:43.890Z,2.73
2023-03-04T06:27:45.322Z,2.67
2023-03-04T06:32:46.738Z,2.07
2023-03-04T06:37:48.164Z,2.63
2023-03-04T06:42:49.562Z,3.23
2023-03-04T06:47:50.994Z,2.63
2023-03-04T06:52:52.407Z,2.90
2023-03-04T06:57:53.832Z,3.07
2023-03-04T07:02:55.375Z,2.23
2023-03-04T07:07:56.795Z,2.40
2023-03-04T07:12:58.200Z,2.47
2023-03-04T07:17:59.612Z,1.87
2023-03-04T07:23:01.018Z,2.30
2023-03-04T07:28:02.430Z,2.63
2023-03-04T07:33:03.837Z,2.23
2023-03-04T07:38:05.260Z,2.00
2023-03-04T07:43:06.705Z,2.13
2023-03-04T07:48:08.122Z,2.63
2023-03-04T07:53:09.555Z,2.53
2023-03-04T07:58:10.983Z,2.23
2023-03-04T08:03:12.567Z,2.57
2023-03-04T08:08:15.876Z,2.10
2023-03-04T08:13:18.453Z,2.00
2023-03-04T08:18:19.863Z,2.00
2023-03-04T08:23:21.304Z,1.97
2023-03-04T08:28:22.702Z,2.33
2023-03-04T08:33:24.134Z,2.23
2023-03-04T08:38:25.536Z,1.67
2023-03-04T08:43:26.936Z,1.83
2023-03-04T08:48:28.345Z,1.70
2023-03-04T08:53:29.772Z,2.40
2023-03-04T08:58:31.178Z,2.37
2023-03-04T09:03:32.684Z,2.30
2023-03-04T09:08:34.155Z,1.80
2023-03-04T09:13:35.601Z,2.00
2023-03-04T09:18:37.038Z,2.20
2023-03-04T09:23:38.465Z,2.00
2023-03-04T09:28:39.886Z,1.80
2023-03-04T09:33:41.296Z,1.67
2023-03-04T09:38:42.705Z,1.90
2023-03-04T09:43:44.131Z,2.27
2023-03-04T09:48:45.562Z,1.60
2023-03-04T09:53:47.088Z,1.93
2023-03-04T09:58:49.264Z,1.63
2023-03-04T10:03:50.693Z,1.63
2023-03-04T10:08:52.133Z,1.50
2023-03-04T10:13:53.549Z,2.40
2023-03-04T10:18:54.967Z,2.00
2023-03-04T10:23:59.365Z,1.93
2023-03-04T10:29:01.160Z,1.70
2023-03-04T10:34:02.573Z,1.67
2023-03-04T10:39:04.024Z,1.77
2023-03-04T10:44:05.444Z,1.60
2023-03-04T10:49:07.021Z,1.80
2023-03-04T10:54:08.429Z,2.13
2023-03-04T10:59:09.854Z,2.07
2023-03-04T11:04:11.287Z,1.70
2023-03-04T11:09:12.712Z,1.73
2023-03-04T11:14:14.122Z,1.80
2023-03-04T11:19:15.536Z,1.53
2023-03-04T11:24:28.385Z,2.07
2023-03-04T11:29:30.767Z,2.00
2023-03-04T11:34:32.169Z,1.57
2023-03-04T11:39:33.603Z,1.97
2023-03-04T11:44:35.048Z,1.50
2023-03-04T11:49:36.472Z,1.43
2023-03-04T11:54:37.889Z,1.70
2023-03-04T11:59:39.307Z,1.53
2023-03-04T12:04:40.771Z,1.43
2023-03-04T12:09:42.213Z,1.57
2023-03-04T12:14:43.627Z,1.30
2023-03-04T12:19:45.041Z,1.37
2023-03-04T12:24:46.470Z,1.90
2023-03-04T12:29:47.894Z,1.13
2023-03-04T12:34:49.352Z,1.43
2023-03-04T12:39:50.917Z,1.63
2023-03-04T12:44:52.406Z,1.10
2023-03-04T12:49:53.841Z,1.50
2023-03-04T12:54:55.371Z,1.43
2023-03-04T12:59:56.810Z,1.30
2023-03-04T13:04:58.755Z,1.20
2023-03-04T13:10:00.228Z,1.13
2023-03-04T13:15:01.656Z,1.37
2023-03-04T13:20:03.080Z,1.40
2023-03-04T13:25:04.479Z,1.30
2023-03-04T13:30:05.891Z,1.30
2023-03-04T13:35:07.307Z,1.20
2023-03-04T13:40:08.746Z,1.20
2023-03-04T13:45:10.168Z,1.60
2023-03-04T13:50:11.654Z,1.40
2023-03-04T13:55:13.085Z,1.40
2023-03-04T14:00:14.542Z,1.20
2023-03-04T14:05:15.962Z,1.30
2023-03-04T14:10:17.406Z,1.23
2023-03-04T14:15:18.826Z,1.80
2023-03-04T14:20:20.252Z,1.40
2023-03-04T14:25:22.774Z,1.03
2023-03-04T14:30:40.837Z,1.47
2023-03-04T14:35:43.951Z,1.67
2023-03-04T14:40:45.395Z,1.47
2023-03-04T14:45:46.906Z,1.10
2023-03-04T14:50:48.398Z,1.27
2023-03-04T14:55:49.842Z,1.30
2023-03-04T15:00:51.327Z,1.30
2023-03-04T15:05:52.758Z,1.63
2023-03-04T15:10:54.172Z,2.10
2023-03-04T15:15:55.600Z,2.00
2023-03-04T15:20:57.036Z,1.77
2023-03-04T15:25:58.472Z,1.83
2023-03-04T15:30:59.909Z,2.20
2023-03-04T15:36:01.343Z,2.00
2023-03-04T15:41:02.791Z,2.10
2023-03-04T15:46:04.218Z,1.93
2023-03-04T15:51:05.651Z,2.57
2023-03-04T15:56:07.066Z,1.90
2023-03-04T16:01:08.492Z,2.00
2023-03-04T16:06:09.903Z,2.03
2023-03-04T16:11:11.346Z,1.70
2023-03-04T16:16:12.814Z,1.80
2023-03-04T16:21:14.258Z,1.90
2023-03-04T16:26:15.671Z,2.07
2023-03-04T16:31:17.216Z,2.10
2023-03-04T16:36:18.837Z,1.50
2023-03-04T16:41:20.329Z,1.90
2023-03-04T16:46:21.859Z,2.23
2023-03-04T16:51:23.340Z,2.10
2023-03-04T16:56:24.796Z,1.90
2023-03-04T17:01:26.284Z,2.30
2023-03-04T17:06:27.761Z,2.27
2023-03-04T17:11:29.174Z,2.20
2023-03-04T17:16:30.618Z,1.80
2023-03-04T17:21:32.080Z,2.77
2023-03-04T17:26:33.508Z,2.20
2023-03-04T17:31:34.999Z,2.23
2023-03-04T17:36:36.450Z,2.07
2023-03-04T17:41:37.858Z,2.13
2023-03-04T17:46:39.355Z,2.33
2023-03-04T17:51:40.797Z,2.00
2023-03-04T17:56:42.198Z,2.37
2023-03-04T18:01:43.616Z,1.87
2023-03-04T18:06:45.033Z,2.00
2023-03-04T18:11:46.436Z,2.40
2023-03-04T18:16:47.844Z,1.80
2023-03-04T18:21:49.284Z,1.97
2023-03-04T18:26:50.684Z,2.07
2023-03-04T18:31:52.111Z,2.20
2023-03-04T18:36:53.522Z,2.40
2023-03-04T18:41:54.960Z,1.97
2023-03-04T18:46:56.379Z,2.00
2023-03-04T18:51:57.809Z,2.27
2023-03-04T18:56:59.222Z,2.30
2023-03-04T19:02:00.651Z,3.10
2023-03-04T19:07:02.074Z,2.00
2023-03-04T19:12:04.929Z,2.30
2023-03-04T19:17:06.341Z,2.37
2023-03-04T19:22:07.774Z,2.23
2023-03-04T19:27:09.192Z,2.47
2023-03-04T19:32:10.626Z,2.23
2023-03-04T19:37:12.061Z,2.30
2023-03-04T19:42:20.281Z,2.27
2023-03-04T19:47:21.732Z,2.30
2023-03-04T19:52:23.248Z,3.00
2023-03-04T19:57:24.802Z,2.30
2023-03-04T20:02:26.333Z,2.53
2023-03-04T20:07:27.749Z,2.50
2023-03-04T20:12:29.162Z,2.47
2023-03-04T20:17:30.576Z,3.00
2023-03-04T20:22:32.093Z,2.47
2023-03-04T20:27:33.547Z,2.90
2023-03-04T20:32:35.050Z,2.50
2023-03-04T20:37:36.508Z,2.47
2023-03-04T20:42:37.933Z,3.30
2023-03-04T20:47:39.781Z,2.97
2023-03-04T20:52:41.275Z,2.87
2023-03-04T20:57:42.695Z,3.10
2023-03-04T21:02:44.116Z,3.10
2023-03-04T21:07:45.521Z,2.73
2023-03-04T21:12:46.929Z,3.23
2023-03-04T21:17:48.336Z,2.43
2023-03-04T21:22:49.748Z,2.37
2023-03-04T21:27:51.164Z,3.17
2023-03-04T21:32:52.663Z,3.00
2023-03-04T21:37:54.164Z,2.87
2023-03-04T21:42:55.565Z,2.87
2023-03-04T21:47:56.993Z,2.87
2023-03-04T21:52:58.393Z,2.60
2023-03-04T21:57:59.806Z,2.33
2023-03-04T22:03:01.217Z,2.70
2023-03-04T22:08:02.656Z,3.00
2023-03-04T22:13:04.059Z,2.60
2023-03-04T22:18:05.461Z,2.73
2023-03-04T22:23:06.857Z,2.50
2023-03-04T22:28:08.276Z,2.40
2023-03-04T22:33:09.682Z,2.50
2023-03-04T22:38:11.080Z,2.43
2023-03-04T22:43:12.483Z,2.47
2023-03-04T22:48:13.897Z,3.50
2023-03-04T22:53:15.302Z,2.33
2023-03-04T22:58:16.707Z,1.83
2023-03-04T23:03:18.105Z,2.23
2023-03-04T23:08:19.510Z,2.23
2023-03-04T23:13:20.922Z,2.47
2023-03-04T23:18:22.332Z,2.17
2023-03-04T23:23:23.737Z,2.60
2023-03-04T23:28:25.144Z,2.43
2023-03-04T23:33:26.549Z,2.37
2023-03-04T23:38:27.952Z,2.10
2023-03-04T23:43:29.361Z,2.23
2023-03-04T23:48:30.766Z,2.13
2023-03-04T23:53:32.210Z,2.57
2023-03-04T23:58:33.646Z,2.00
